createdAt,value
2016-12-16T00:00:52.929Z,93.1
2016-12-16T00:01:55.871Z,93.1
2016-12-16T00:02:59.319Z,93.1
2016-12-16T00:04:02.256Z,93.1
2016-12-16T00:05:05.700Z,93.1
2016-12-16T00:06:08.645Z,93.1
2016-12-16T00:07:12.101Z,93.1
2016-12-16T00:08:15.046Z,93.1
2016-12-16T00:09:18.509Z,93.1
2016-12-16T00:10:21.597Z,93.1
2016-12-16T00:11:24.548Z,93.1
2016-12-16T00:12:27.997Z,93.1
2016-12-16T00:13:30.938Z,93.1
2016-12-16T00:14:34.380Z,93.1
2016-12-16T00:15:37.324Z,93.1
2016-12-16T00:16:40.773Z,93.1
2016-12-16T00:17:43.712Z,93.1
2016-12-16T00:18:47.187Z,93.1
2016-12-16T00:19:50.128Z,93.1
2016-12-16T00:20:53.071Z,93.1
2016-12-16T00:21:56.517Z,93.1
2016-12-16T00:22:59.462Z,93.1
2016-12-16T00:24:02.913Z,93.1
2016-12-16T00:25:05.995Z,93.1
2016-12-16T00:26:08.939Z,93.1
2016-12-16T00:27:12.391Z,93.1
2016-12-16T00:28:15.336Z,93.1
2016-12-16T00:29:18.788Z,93.1
2016-12-16T00:30:21.731Z,93.1
2016-12-16T00:31:24.823Z,93.1
2016-12-16T00:32:28.269Z,93.1
2016-12-16T00:33:31.213Z,93.1
2016-12-16T00:34:34.664Z,93.1
2016-12-16T00:35:37.621Z,93.2
2016-12-16T00:36:41.074Z,93.1
2016-12-16T00:37:44.021Z,93.1
2016-12-16T00:38:47.468Z,93.2
2016-12-16T00:39:50.411Z,93.2
2016-12-16T00:40:53.353Z,93.1
2016-12-16T00:41:56.803Z,93.2
2016-12-16T00:42:59.750Z,93.2
2016-12-16T00:44:03.200Z,93.2
2016-12-16T00:45:06.142Z,93.2
2016-12-16T00:47:12.497Z,93.2
2016-12-16T00:48:15.945Z,93.2
2016-12-16T00:49:18.886Z,93.2
2016-12-16T00:50:22.335Z,93.2
2016-12-16T00:51:25.286Z,93.2
2016-12-16T00:52:28.731Z,93.2
2016-12-16T00:53:31.674Z,93.2
2016-12-16T00:54:34.619Z,93.2
2016-12-16T00:55:38.069Z,93.2
2016-12-16T00:56:41.015Z,93.2
2016-12-16T00:57:44.466Z,93.2
2016-12-16T00:58:47.407Z,93.2
2016-12-16T00:59:50.856Z,93.2
2016-12-16T01:00:53.803Z,93.2
2016-12-16T01:01:57.257Z,93.2
2016-12-16T01:03:00.198Z,93.2
2016-12-16T01:04:03.650Z,93.3
2016-12-16T01:05:06.596Z,93.3
2016-12-16T01:06:09.543Z,93.3
2016-12-16T01:07:12.995Z,93.3
2016-12-16T01:08:15.942Z,93.3
2016-12-16T01:09:19.393Z,93.3
2016-12-16T01:10:22.338Z,93.3
2016-12-16T01:11:25.817Z,93.3
2016-12-16T01:12:28.760Z,93.3
2016-12-16T01:13:31.704Z,93.3
2016-12-16T01:14:35.154Z,93.3
2016-12-16T01:15:38.105Z,93.3
2016-12-16T01:16:41.557Z,93.3
2016-12-16T01:17:44.504Z,93.3
2016-12-16T01:18:47.956Z,93.3
2016-12-16T01:19:50.902Z,93.3
2016-12-16T01:20:54.350Z,93.3
2016-12-16T01:21:57.293Z,93.3
2016-12-16T01:23:00.236Z,93.3
2016-12-16T01:24:03.689Z,93.3
2016-12-16T01:25:06.629Z,93.3
2016-12-16T01:26:10.074Z,93.3
2016-12-16T01:27:13.018Z,93.3
2016-12-16T01:28:16.480Z,93.3
2016-12-16T01:29:19.422Z,93.3
2016-12-16T01:30:22.864Z,93.3
2016-12-16T01:31:25.812Z,93.3
2016-12-16T01:32:28.761Z,93.3
2016-12-16T01:33:32.208Z,93.3
2016-12-16T01:35:38.567Z,93.3
2016-12-16T01:36:41.512Z,93.3
2016-12-16T01:37:44.962Z,93.3
2016-12-16T01:38:47.904Z,93.3
2016-12-16T01:39:51.357Z,93.3
2016-12-16T01:40:54.300Z,93.3
2016-12-16T01:41:57.748Z,93.3
2016-12-16T01:43:00.698Z,93.3
2016-12-16T01:44:03.648Z,93.3
2016-12-16T01:45:07.096Z,93.3
2016-12-16T01:46:10.042Z,93.3
2016-12-16T01:47:13.493Z,93.3
2016-12-16T01:48:16.445Z,93.3
2016-12-16T01:49:19.889Z,93.3
2016-12-16T01:50:22.838Z,93.3
2016-12-16T01:51:25.782Z,93.3
2016-12-16T01:52:29.231Z,93.3
2016-12-16T01:53:32.176Z,93.3
2016-12-16T01:54:35.624Z,93.3
2016-12-16T01:55:38.575Z,93.3
2016-12-16T01:56:42.024Z,93.3
2016-12-16T01:57:44.972Z,93.2
2016-12-16T01:58:47.919Z,93.2
2016-12-16T01:59:51.363Z,93.2
2016-12-16T02:00:54.312Z,93.2
2016-12-16T02:01:57.764Z,93.2
2016-12-16T02:03:00.711Z,93.2
2016-12-16T02:04:04.160Z,93.2
2016-12-16T02:05:07.104Z,93.2
2016-12-16T02:06:10.549Z,93.2
2016-12-16T02:07:13.497Z,93.2
2016-12-16T02:08:16.440Z,93.2
2016-12-16T02:09:19.894Z,93.2
2016-12-16T02:10:22.837Z,93.2
2016-12-16T02:11:26.289Z,93.2
2016-12-16T02:12:29.231Z,93.2
2016-12-16T02:13:32.714Z,93.2
2016-12-16T02:14:35.660Z,93.2
2016-12-16T02:15:38.605Z,93.2
2016-12-16T02:16:42.053Z,93.2
2016-12-16T02:17:45.004Z,93.2
2016-12-16T02:18:48.462Z,93.2
2016-12-16T02:19:51.404Z,93.2
2016-12-16T02:20:54.848Z,93.2
2016-12-16T02:21:57.792Z,93.2
2016-12-16T02:23:00.741Z,93.2
2016-12-16T02:24:04.190Z,93.2
2016-12-16T02:25:07.134Z,93.2
2016-12-16T02:26:10.583Z,93.2
2016-12-16T02:27:13.531Z,93.2
2016-12-16T02:28:16.982Z,93.2
2016-12-16T02:29:19.931Z,93.2
2016-12-16T02:30:22.877Z,93.1
2016-12-16T02:31:26.328Z,93.1
2016-12-16T02:32:29.269Z,93.1
2016-12-16T02:33:32.714Z,93.1
2016-12-16T02:34:35.659Z,93.2
2016-12-16T02:35:39.139Z,93.2
2016-12-16T02:36:42.088Z,93.2
2016-12-16T02:37:45.029Z,93.1
2016-12-16T02:38:48.476Z,93.1
2016-12-16T02:39:51.425Z,93.2
2016-12-16T02:40:54.884Z,93.1
2016-12-16T02:41:57.827Z,93.1
2016-12-16T02:43:01.276Z,93.1
2016-12-16T02:44:04.219Z,93.1
2016-12-16T02:45:07.197Z,93.2
2016-12-16T02:46:10.642Z,93.1
2016-12-16T02:47:13.600Z,93.1
2016-12-16T02:48:17.049Z,93.1
2016-12-16T02:49:19.987Z,93.1
2016-12-16T02:50:23.435Z,93.1
2016-12-16T02:51:26.389Z,93.2
2016-12-16T02:52:29.334Z,93.1
2016-12-16T02:53:32.786Z,93.2
2016-12-16T02:54:35.731Z,93.1
2016-12-16T02:55:39.191Z,93.2
2016-12-16T02:56:42.138Z,93.2
2016-12-16T02:58:48.496Z,93.2
2016-12-16T02:59:51.954Z,93.2
2016-12-16T03:00:54.898Z,93.2
2016-12-16T03:01:57.841Z,93.2
2016-12-16T03:03:01.289Z,93.2
2016-12-16T03:04:04.229Z,93.2
2016-12-16T03:05:07.671Z,93.2
2016-12-16T03:06:10.620Z,93.2
2016-12-16T03:07:14.070Z,93.2
2016-12-16T03:08:17.046Z,93.2
2016-12-16T03:09:19.992Z,93.2
2016-12-16T03:10:23.438Z,93.2
2016-12-16T03:11:26.384Z,93.2
2016-12-16T03:12:29.831Z,93.2
2016-12-16T03:13:32.782Z,93.2
2016-12-16T03:14:36.230Z,93.2
2016-12-16T03:15:39.179Z,93.2
2016-12-16T03:16:42.624Z,93.2
2016-12-16T03:17:45.567Z,93.2
2016-12-16T03:18:48.513Z,93.2
2016-12-16T03:19:51.969Z,93.2
2016-12-16T03:20:54.949Z,93.2
2016-12-16T03:21:58.396Z,93.2
2016-12-16T03:23:01.336Z,93.2
2016-12-16T03:24:04.781Z,93.2
2016-12-16T03:25:07.724Z,93.2
2016-12-16T03:26:10.671Z,93.2
2016-12-16T03:27:14.119Z,93.2
2016-12-16T03:28:17.063Z,93.2
2016-12-16T03:29:20.509Z,93.2
2016-12-16T03:30:23.448Z,93.2
2016-12-16T03:32:29.801Z,93.2
2016-12-16T03:33:33.249Z,93.2
2016-12-16T03:34:36.195Z,93.2
2016-12-16T03:35:39.141Z,93.2
2016-12-16T03:36:42.588Z,93.2
2016-12-16T03:37:45.596Z,93.2
2016-12-16T03:38:49.046Z,93.2
2016-12-16T03:39:51.992Z,93.2
2016-12-16T03:41:58.344Z,93.2
2016-12-16T03:43:01.287Z,93.2
2016-12-16T03:44:04.739Z,93.2
2016-12-16T03:45:07.682Z,93.2
2016-12-16T03:46:11.133Z,93.3
2016-12-16T03:47:14.077Z,93.3
2016-12-16T03:48:17.520Z,93.3
2016-12-16T03:49:20.475Z,93.3
2016-12-16T03:50:23.422Z,93.3
2016-12-16T03:51:26.870Z,93.3
2016-12-16T03:52:29.813Z,93.3
2016-12-16T03:53:33.269Z,93.3
2016-12-16T03:54:36.218Z,93.3
2016-12-16T03:55:39.664Z,93.3
2016-12-16T03:56:42.608Z,93.3
2016-12-16T03:57:46.050Z,93.3
2016-12-16T03:58:48.984Z,93.3
2016-12-16T03:59:51.916Z,93.3
2016-12-16T04:00:55.367Z,93.2
2016-12-16T04:01:58.315Z,93.2
2016-12-16T04:03:01.755Z,93.2
2016-12-16T04:04:04.697Z,93.2
2016-12-16T04:05:07.771Z,93.2
2016-12-16T04:06:11.214Z,93.2
2016-12-16T04:07:14.157Z,93.2
2016-12-16T04:08:17.599Z,93.2
2016-12-16T04:09:20.541Z,93.2
2016-12-16T04:10:23.484Z,93.2
2016-12-16T04:11:26.931Z,93.2
2016-12-16T04:12:29.870Z,93.2
2016-12-16T04:13:33.323Z,93.2
2016-12-16T04:14:36.275Z,93.2
2016-12-16T04:15:39.713Z,93.2
2016-12-16T04:16:42.651Z,93.2
2016-12-16T04:17:45.597Z,93.2
2016-12-16T04:18:49.044Z,93.2
2016-12-16T04:19:51.980Z,93.2
2016-12-16T04:20:55.563Z,93.2
2016-12-16T04:21:58.529Z,93.2
2016-12-16T04:23:01.468Z,93.1
2016-12-16T04:24:04.912Z,93.1
2016-12-16T04:25:07.852Z,93.1
2016-12-16T04:26:11.299Z,93.1
2016-12-16T04:27:14.237Z,93.1
2016-12-16T04:28:17.683Z,93.1
2016-12-16T04:29:20.620Z,93.1
2016-12-16T04:30:23.557Z,93.1
2016-12-16T04:31:26.997Z,93.1
2016-12-16T04:32:29.944Z,93.1
2016-12-16T04:33:33.386Z,93.1
2016-12-16T04:34:36.332Z,93.1
2016-12-16T04:35:39.775Z,93.1
2016-12-16T04:36:42.712Z,93.1
2016-12-16T04:37:45.651Z,93.1
2016-12-16T04:38:49.093Z,93
2016-12-16T04:39:52.035Z,93
2016-12-16T04:40:55.482Z,93
2016-12-16T04:41:58.431Z,93
2016-12-16T04:44:04.788Z,93
2016-12-16T04:45:07.725Z,93
2016-12-16T04:46:11.164Z,93
2016-12-16T04:47:14.114Z,93
2016-12-16T04:48:17.582Z,93
2016-12-16T04:49:20.529Z,93
2016-12-16T04:51:26.887Z,93
2016-12-16T04:52:29.834Z,93
2016-12-16T04:53:33.277Z,93
2016-12-16T04:54:36.220Z,93
2016-12-16T04:55:39.658Z,93
2016-12-16T04:56:42.596Z,92.9
2016-12-16T04:57:46.040Z,92.9
2016-12-16T04:58:48.978Z,92.9
2016-12-16T04:59:51.915Z,92.9
2016-12-16T05:00:55.355Z,92.9
2016-12-16T05:01:58.303Z,92.9
2016-12-16T05:03:01.749Z,92.9
2016-12-16T05:04:04.695Z,92.9
2016-12-16T05:05:08.140Z,92.9
2016-12-16T05:06:11.082Z,92.9
2016-12-16T05:07:14.022Z,92.9
2016-12-16T05:08:17.465Z,92.9
2016-12-16T05:09:20.407Z,92.9
2016-12-16T05:10:23.527Z,92.9
2016-12-16T05:11:26.963Z,92.9
2016-12-16T05:12:29.907Z,92.9
2016-12-16T05:14:36.261Z,92.9
2016-12-16T05:15:39.204Z,92.9
2016-12-16T05:16:42.653Z,92.9
2016-12-16T05:17:45.589Z,92.9
2016-12-16T05:18:49.032Z,92.9
2016-12-16T05:19:51.968Z,92.8
2016-12-16T05:20:55.419Z,92.8
2016-12-16T05:21:58.360Z,92.8
2016-12-16T05:24:04.712Z,92.8
2016-12-16T05:25:07.647Z,92.8
2016-12-16T05:26:11.106Z,92.8
2016-12-16T05:27:14.048Z,92.8
2016-12-16T05:28:17.488Z,92.8
2016-12-16T05:29:20.428Z,92.8
2016-12-16T05:30:23.368Z,92.8
2016-12-16T05:31:26.808Z,92.8
2016-12-16T05:32:29.752Z,92.8
2016-12-16T05:33:33.196Z,92.8
2016-12-16T05:34:36.134Z,92.8
2016-12-16T05:35:39.584Z,92.8
2016-12-16T05:36:42.523Z,92.8
2016-12-16T05:37:45.458Z,92.8
2016-12-16T05:38:48.903Z,92.8
2016-12-16T05:40:55.257Z,92.8
2016-12-16T05:41:58.194Z,92.8
2016-12-16T05:43:01.634Z,92.8
2016-12-16T05:44:04.575Z,92.8
2016-12-16T05:45:07.515Z,92.8
2016-12-16T05:46:10.961Z,92.8
2016-12-16T05:47:13.909Z,92.8
2016-12-16T05:48:17.375Z,92.8
2016-12-16T05:49:20.312Z,92.7
2016-12-16T05:50:23.756Z,92.7
2016-12-16T05:51:26.698Z,92.7
2016-12-16T05:52:29.635Z,92.8
2016-12-16T05:53:33.081Z,92.7
2016-12-16T05:54:36.021Z,92.7
2016-12-16T05:55:39.463Z,92.7
2016-12-16T05:56:42.405Z,92.7
2016-12-16T05:57:45.347Z,92.7
2016-12-16T05:58:48.793Z,92.7
2016-12-16T05:59:51.874Z,92.7
2016-12-16T06:00:54.808Z,92.7
2016-12-16T06:01:58.255Z,92.7
2016-12-16T06:03:01.196Z,92.7
2016-12-16T06:04:04.637Z,92.7
2016-12-16T06:05:07.579Z,92.7
2016-12-16T06:06:11.024Z,92.7
2016-12-16T06:07:13.961Z,92.7
2016-12-16T06:08:16.896Z,92.7
2016-12-16T06:09:20.340Z,92.7
2016-12-16T06:10:23.280Z,92.7
2016-12-16T06:11:26.723Z,92.7
2016-12-16T06:12:29.662Z,92.7
2016-12-16T06:13:33.102Z,92.7
2016-12-16T06:14:36.040Z,92.7
2016-12-16T06:15:38.981Z,92.7
2016-12-16T06:17:45.337Z,92.6
2016-12-16T06:18:48.775Z,92.6
2016-12-16T06:19:51.714Z,92.6
2016-12-16T06:20:55.158Z,92.6
2016-12-16T06:21:58.089Z,92.6
2016-12-16T06:23:01.030Z,92.6
2016-12-16T06:24:04.483Z,92.6
2016-12-16T06:25:07.424Z,92.6
2016-12-16T06:26:10.874Z,92.6
2016-12-16T06:27:13.814Z,92.6
2016-12-16T06:28:16.754Z,92.6
2016-12-16T06:29:20.196Z,92.5
2016-12-16T06:30:23.133Z,92.5
2016-12-16T06:31:26.575Z,92.5
2016-12-16T06:32:29.549Z,92.5
2016-12-16T06:33:32.996Z,92.5
2016-12-16T06:34:36.075Z,92.5
2016-12-16T06:35:39.013Z,92.5
2016-12-16T06:36:41.959Z,92.5
2016-12-16T06:37:45.404Z,92.5
2016-12-16T06:38:48.344Z,92.5
2016-12-16T06:39:51.786Z,92.5
2016-12-16T06:40:54.726Z,92.6
2016-12-16T06:41:58.176Z,92.6
2016-12-16T06:43:01.114Z,92.7
2016-12-16T06:45:07.598Z,92.7
2016-12-16T06:46:10.540Z,92.7
2016-12-16T06:47:13.483Z,92.7
2016-12-16T06:48:16.926Z,92.7
2016-12-16T06:50:23.282Z,92.7
2016-12-16T06:51:26.469Z,92.7
2016-12-16T06:52:29.410Z,92.7
2016-12-16T06:53:32.348Z,92.7
2016-12-16T06:54:35.788Z,92.7
2016-12-16T06:55:38.724Z,92.7
2016-12-16T06:56:42.167Z,92.7
2016-12-16T06:57:45.103Z,92.7
2016-12-16T06:58:48.549Z,92.7
2016-12-16T06:59:51.491Z,92.7
2016-12-16T07:00:54.435Z,92.7
2016-12-16T07:01:57.873Z,92.7
2016-12-16T07:03:00.824Z,92.7
2016-12-16T07:04:03.899Z,92.7
2016-12-16T07:05:07.341Z,92.7
2016-12-16T07:06:10.275Z,92.7
2016-12-16T07:07:13.712Z,92.7
2016-12-16T07:08:16.657Z,92.7
2016-12-16T07:10:23.007Z,92.7
2016-12-16T07:11:25.966Z,92.7
2016-12-16T07:12:29.085Z,92.7
2016-12-16T07:13:32.206Z,92.7
2016-12-16T07:14:35.655Z,92.7
2016-12-16T07:15:38.598Z,92.7
2016-12-16T07:16:42.036Z,92.7
2016-12-16T07:17:44.977Z,92.7
2016-12-16T07:18:48.417Z,92.7
2016-12-16T07:19:51.355Z,92.7
2016-12-16T07:20:54.433Z,92.7
2016-12-16T07:21:57.875Z,92.7
2016-12-16T07:23:00.949Z,92.6
2016-12-16T07:24:03.893Z,92.6
2016-12-16T07:25:06.869Z,92.6
2016-12-16T07:26:10.310Z,92.6
2016-12-16T07:27:13.243Z,92.6
2016-12-16T07:28:16.683Z,92.6
2016-12-16T07:29:19.621Z,92.6
2016-12-16T07:30:23.067Z,92.6
2016-12-16T07:31:26.007Z,92.6
2016-12-16T07:32:28.951Z,92.6
2016-12-16T07:33:32.401Z,92.6
2016-12-16T07:34:35.340Z,92.5
2016-12-16T07:35:38.787Z,92.5
2016-12-16T07:37:45.143Z,92.5
2016-12-16T07:38:48.091Z,92.5
2016-12-16T07:39:51.030Z,92.5
2016-12-16T07:40:54.448Z,92.5
2016-12-16T07:43:00.797Z,92.5
2016-12-16T07:44:03.765Z,92.5
2016-12-16T07:45:07.207Z,92.5
2016-12-16T07:46:10.143Z,92.5
2016-12-16T07:47:13.085Z,92.5
2016-12-16T07:48:16.521Z,92.5
2016-12-16T07:49:19.492Z,92.5
2016-12-16T07:50:22.932Z,92.5
2016-12-16T07:51:25.867Z,92.4
2016-12-16T07:52:28.816Z,92.4
2016-12-16T07:53:32.285Z,92.4
2016-12-16T07:54:35.221Z,92.4
2016-12-16T07:55:38.669Z,92.4
2016-12-16T07:56:41.614Z,92.4
2016-12-16T07:57:44.553Z,92.4
2016-12-16T07:58:47.996Z,92.4
2016-12-16T07:59:50.933Z,92.4
2016-12-16T08:00:54.372Z,92.4
2016-12-16T08:01:57.313Z,92.4
2016-12-16T08:03:00.754Z,92.4
2016-12-16T08:04:03.694Z,92.4
2016-12-16T08:05:06.636Z,92.4
2016-12-16T08:06:10.083Z,92.4
2016-12-16T08:07:13.023Z,92.4
2016-12-16T08:08:16.467Z,92.4
2016-12-16T08:09:19.463Z,92.4
2016-12-16T08:10:22.399Z,92.4
2016-12-16T08:11:25.840Z,92.4
2016-12-16T08:12:28.776Z,92.4
2016-12-16T08:13:32.221Z,92.4
2016-12-16T08:14:35.157Z,92.4
2016-12-16T08:15:38.600Z,92.4
2016-12-16T08:16:41.531Z,92.4
2016-12-16T08:17:44.468Z,92.4
2016-12-16T08:18:47.912Z,92.4
2016-12-16T08:19:50.851Z,92.4
2016-12-16T08:20:54.294Z,92.4
2016-12-16T08:21:57.231Z,92.4
2016-12-16T08:23:00.668Z,92.4
2016-12-16T08:24:03.605Z,92.4
2016-12-16T08:25:07.041Z,92.4
2016-12-16T08:26:09.979Z,92.4
2016-12-16T08:27:12.921Z,92.4
2016-12-16T08:29:19.271Z,92.4
2016-12-16T08:30:22.709Z,92.4
2016-12-16T08:31:25.649Z,92.4
2016-12-16T08:32:29.091Z,92.4
2016-12-16T08:33:32.032Z,92.4
2016-12-16T08:34:34.975Z,92.4
2016-12-16T08:36:41.355Z,92.4
2016-12-16T08:37:44.803Z,92.4
2016-12-16T08:38:47.766Z,92.4
2016-12-16T08:39:51.206Z,92.4
2016-12-16T08:40:54.143Z,92.4
2016-12-16T08:41:57.084Z,92.4
2016-12-16T08:43:00.531Z,92.4
2016-12-16T08:44:03.467Z,92.4
2016-12-16T08:45:06.911Z,92.4
2016-12-16T08:46:09.854Z,92.4
2016-12-16T08:47:13.301Z,92.4
2016-12-16T08:48:16.238Z,92.4
2016-12-16T08:49:19.176Z,92.4
2016-12-16T08:50:22.618Z,92.4
2016-12-16T08:51:25.560Z,92.5
2016-12-16T08:52:29.002Z,92.5
2016-12-16T08:53:31.942Z,92.5
2016-12-16T08:54:35.390Z,92.5
2016-12-16T08:55:38.328Z,92.5
2016-12-16T08:56:41.274Z,92.5
2016-12-16T08:57:44.713Z,92.5
2016-12-16T08:58:47.651Z,92.5
2016-12-16T08:59:51.089Z,92.5
2016-12-16T09:00:54.024Z,92.5
2016-12-16T09:01:57.469Z,92.5
2016-12-16T09:03:00.408Z,92.5
2016-12-16T09:04:03.352Z,92.5
2016-12-16T09:05:06.792Z,92.5
2016-12-16T09:06:09.726Z,92.5
2016-12-16T09:07:13.169Z,92.5
2016-12-16T09:08:16.114Z,92.5
2016-12-16T09:10:22.463Z,92.5
2016-12-16T09:11:25.923Z,92.5
2016-12-16T09:12:28.862Z,92.5
2016-12-16T09:13:31.800Z,92.5
2016-12-16T09:14:35.243Z,92.5
2016-12-16T09:15:38.179Z,92.5
2016-12-16T09:16:41.622Z,92.5
2016-12-16T09:17:44.563Z,92.5
2016-12-16T09:18:48.008Z,92.5
2016-12-16T09:19:50.944Z,92.5
2016-12-16T09:20:53.878Z,92.5
2016-12-16T09:21:57.328Z,92.5
2016-12-16T09:23:00.267Z,92.5
2016-12-16T09:24:03.709Z,92.5
2016-12-16T09:25:06.646Z,92.5
2016-12-16T09:27:13.248Z,92.5
2016-12-16T09:28:16.184Z,92.5
2016-12-16T09:29:19.625Z,92.5
2016-12-16T09:30:22.801Z,92.5
2016-12-16T09:31:25.999Z,92.5
2016-12-16T09:32:28.937Z,92.5
2016-12-16T09:33:31.874Z,92.5
2016-12-16T09:34:35.310Z,92.5
2016-12-16T09:35:38.249Z,92.5
2016-12-16T09:36:41.685Z,92.5
2016-12-16T09:37:44.616Z,92.5
2016-12-16T09:38:48.054Z,92.5
2016-12-16T09:39:50.994Z,92.5
2016-12-16T09:40:54.435Z,92.5
2016-12-16T09:41:57.371Z,92.5
2016-12-16T09:43:00.826Z,92.5
2016-12-16T09:44:03.770Z,92.5
2016-12-16T09:45:06.740Z,92.5
2016-12-16T09:46:10.178Z,92.5
2016-12-16T09:47:13.113Z,92.5
2016-12-16T09:48:16.581Z,92.5
2016-12-16T09:49:19.521Z,92.5
2016-12-16T09:50:22.550Z,92.5
2016-12-16T09:51:25.994Z,92.5
2016-12-16T09:52:28.935Z,92.5
2016-12-16T09:53:32.375Z,92.5
2016-12-16T09:54:35.313Z,92.5
2016-12-16T09:55:38.765Z,92.5
2016-12-16T09:56:41.702Z,92.5
2016-12-16T09:57:45.143Z,92.5
2016-12-16T09:58:48.300Z,92.5
2016-12-16T09:59:51.102Z,92.5
2016-12-16T10:00:54.234Z,92.5
2016-12-16T10:01:57.680Z,92.5
2016-12-16T10:03:00.613Z,92.5
2016-12-16T10:04:04.054Z,92.5
2016-12-16T10:05:06.998Z,92.5
2016-12-16T10:06:10.435Z,92.5
2016-12-16T10:07:13.371Z,92.5
2016-12-16T10:08:16.814Z,92.5
2016-12-16T10:09:19.756Z,92.5
2016-12-16T10:11:26.109Z,92.5
2016-12-16T10:12:29.052Z,92.5
2016-12-16T10:13:32.500Z,92.5
2016-12-16T10:14:35.438Z,92.5
2016-12-16T10:15:38.878Z,92.5
2016-12-16T10:16:41.814Z,92.5
2016-12-16T10:17:45.258Z,92.6
2016-12-16T10:18:48.194Z,92.6
2016-12-16T10:19:51.633Z,92.6
2016-12-16T10:20:54.573Z,92.6
2016-12-16T10:21:58.017Z,92.6
2016-12-16T10:23:00.950Z,92.6
2016-12-16T10:24:03.892Z,92.6
2016-12-16T10:25:07.346Z,92.6
2016-12-16T10:26:10.283Z,92.6
2016-12-16T10:27:13.724Z,92.6
2016-12-16T10:28:16.661Z,92.6
2016-12-16T10:29:20.105Z,92.6
2016-12-16T10:30:23.053Z,92.6
2016-12-16T10:31:26.498Z,92.6
2016-12-16T10:32:29.443Z,92.6
2016-12-16T10:33:32.887Z,92.6
2016-12-16T10:34:35.825Z,92.6
2016-12-16T10:35:38.760Z,92.6
2016-12-16T10:36:42.203Z,92.6
2016-12-16T10:37:45.143Z,92.6
2016-12-16T10:38:48.588Z,92.6
2016-12-16T10:39:51.527Z,92.6
2016-12-16T10:41:57.877Z,92.6
2016-12-16T10:43:01.319Z,92.6
2016-12-16T10:44:04.257Z,92.6
2016-12-16T10:45:07.702Z,92.6
2016-12-16T10:46:10.642Z,92.6
2016-12-16T10:47:14.085Z,92.6
2016-12-16T10:48:17.021Z,92.6
2016-12-16T10:49:20.466Z,92.6
2016-12-16T10:50:23.401Z,92.6
2016-12-16T10:51:26.476Z,92.6
2016-12-16T10:52:29.918Z,92.6
2016-12-16T10:53:32.855Z,92.6
2016-12-16T10:54:36.299Z,92.6
2016-12-16T10:55:39.236Z,92.6
2016-12-16T10:56:42.679Z,92.6
2016-12-16T10:57:45.621Z,92.6
2016-12-16T10:58:48.555Z,92.6
2016-12-16T10:59:51.993Z,92.6
2016-12-16T11:00:54.936Z,92.6
2016-12-16T11:01:58.376Z,92.6
2016-12-16T11:03:01.318Z,92.6
2016-12-16T11:04:04.764Z,92.6
2016-12-16T11:05:07.702Z,92.6
2016-12-16T11:06:11.146Z,92.6
2016-12-16T11:07:14.086Z,92.6
2016-12-16T11:08:17.522Z,92.6
2016-12-16T11:09:20.458Z,92.6
2016-12-16T11:10:23.899Z,92.6
2016-12-16T11:11:26.839Z,92.6
2016-12-16T11:12:30.289Z,92.6
2016-12-16T11:13:33.235Z,92.6
2016-12-16T11:14:36.174Z,92.6
2016-12-16T11:15:39.618Z,92.6
2016-12-16T11:16:42.560Z,92.6
2016-12-16T11:17:46.004Z,92.6
2016-12-16T11:18:48.948Z,92.6
2016-12-16T11:19:52.399Z,92.6
2016-12-16T11:20:55.339Z,92.6
2016-12-16T11:21:58.779Z,92.6
2016-12-16T11:23:01.714Z,92.6
2016-12-16T11:24:05.156Z,92.6
2016-12-16T11:25:08.100Z,92.6
2016-12-16T11:26:11.542Z,92.6
2016-12-16T11:27:14.474Z,92.6
2016-12-16T11:28:17.912Z,92.6
2016-12-16T11:29:20.850Z,92.7
2016-12-16T11:30:23.789Z,92.6
2016-12-16T11:31:27.236Z,92.6
2016-12-16T11:32:30.175Z,92.6
2016-12-16T11:33:33.617Z,92.6
2016-12-16T11:34:36.561Z,92.6
2016-12-16T11:35:40.003Z,92.6
2016-12-16T11:36:42.946Z,92.6
2016-12-16T11:37:46.394Z,92.7
2016-12-16T11:38:49.332Z,92.7
2016-12-16T11:39:52.772Z,92.7
2016-12-16T11:40:55.710Z,92.7
2016-12-16T11:41:59.160Z,92.6
2016-12-16T11:43:02.097Z,92.6
2016-12-16T11:44:05.543Z,92.6
2016-12-16T11:45:08.482Z,92.6
2016-12-16T11:46:11.422Z,92.6
2016-12-16T11:47:14.868Z,92.6
2016-12-16T11:48:17.806Z,92.6
2016-12-16T11:49:21.251Z,92.7
2016-12-16T11:50:24.188Z,92.7
2016-12-16T11:51:27.629Z,92.7
2016-12-16T11:52:30.569Z,92.7
2016-12-16T11:53:34.016Z,92.7
2016-12-16T11:54:36.954Z,92.7
2016-12-16T11:55:40.398Z,92.7
2016-12-16T11:56:43.336Z,92.7
2016-12-16T11:57:46.772Z,92.7
2016-12-16T11:58:49.872Z,92.7
2016-12-16T11:59:52.846Z,92.7
2016-12-16T12:00:56.287Z,92.6
2016-12-16T12:01:59.222Z,92.7
2016-12-16T12:03:02.664Z,92.6
2016-12-16T12:04:05.603Z,92.6
2016-12-16T12:06:11.955Z,92.7
2016-12-16T12:07:15.399Z,92.7
2016-12-16T12:08:18.335Z,92.7
2016-12-16T12:09:21.772Z,92.7
2016-12-16T12:10:24.726Z,92.7
2016-12-16T12:11:28.169Z,92.7
2016-12-16T12:12:31.110Z,92.7
2016-12-16T12:13:34.057Z,92.7
2016-12-16T12:14:37.499Z,92.7
2016-12-16T12:15:40.447Z,92.7
2016-12-16T12:16:43.891Z,92.7
2016-12-16T12:17:46.827Z,92.7
2016-12-16T12:18:50.403Z,92.7
2016-12-16T12:19:53.343Z,92.7
2016-12-16T12:20:56.284Z,92.7
2016-12-16T12:21:59.755Z,92.7
2016-12-16T12:23:02.694Z,92.7
2016-12-16T12:24:06.136Z,92.7
2016-12-16T12:25:09.074Z,92.7
2016-12-16T12:26:12.516Z,92.7
2016-12-16T12:27:15.453Z,92.7
2016-12-16T12:28:18.891Z,92.7
2016-12-16T12:29:21.827Z,92.7
2016-12-16T12:30:25.271Z,92.7
2016-12-16T12:31:28.277Z,92.7
2016-12-16T12:32:31.717Z,92.7
2016-12-16T12:33:34.658Z,92.7
2016-12-16T12:34:38.098Z,92.7
2016-12-16T12:35:41.031Z,92.7
2016-12-16T12:36:43.973Z,92.7
2016-12-16T12:37:47.413Z,92.7
2016-12-16T12:38:50.353Z,92.7
2016-12-16T12:39:53.797Z,92.7
2016-12-16T12:40:56.739Z,92.7
2016-12-16T12:42:00.182Z,92.7
2016-12-16T12:43:03.120Z,92.7
2016-12-16T12:45:09.464Z,92.7
2016-12-16T12:46:12.903Z,92.7
2016-12-16T12:47:15.845Z,92.7
2016-12-16T12:48:19.286Z,92.7
2016-12-16T12:49:22.222Z,92.7
2016-12-16T12:50:25.660Z,92.7
2016-12-16T12:51:28.600Z,92.7
2016-12-16T12:52:32.047Z,92.7
2016-12-16T12:53:35.123Z,92.7
2016-12-16T12:54:38.204Z,92.7
2016-12-16T12:55:41.648Z,92.7
2016-12-16T12:56:44.586Z,92.7
2016-12-16T12:57:48.038Z,92.7
2016-12-16T12:58:50.968Z,92.7
2016-12-16T12:59:54.413Z,92.7
2016-12-16T13:00:57.355Z,92.7
2016-12-16T13:02:00.291Z,92.7
2016-12-16T13:03:03.731Z,92.7
2016-12-16T13:04:06.674Z,92.7
2016-12-16T13:05:10.116Z,92.7
2016-12-16T13:06:13.051Z,92.7
2016-12-16T13:07:16.491Z,92.7
2016-12-16T13:08:19.425Z,92.7
2016-12-16T13:09:22.862Z,92.7
2016-12-16T13:10:25.801Z,92.7
2016-12-16T13:11:29.241Z,92.7
2016-12-16T13:12:32.180Z,92.7
2016-12-16T13:13:35.631Z,92.7
2016-12-16T13:15:41.979Z,92.7
2016-12-16T13:16:44.917Z,92.7
2016-12-16T13:17:48.358Z,92.7
2016-12-16T13:18:51.302Z,92.7
2016-12-16T13:19:54.743Z,92.7
2016-12-16T13:20:57.677Z,92.7
2016-12-16T13:22:01.119Z,92.7
2016-12-16T13:23:04.059Z,92.7
2016-12-16T13:24:07.497Z,92.7
2016-12-16T13:25:10.433Z,92.7
2016-12-16T13:26:13.873Z,92.7
2016-12-16T13:27:16.810Z,92.7
2016-12-16T13:28:20.253Z,92.7
2016-12-16T13:29:23.193Z,92.7
2016-12-16T13:30:26.636Z,92.7
2016-12-16T13:31:29.574Z,92.7
2016-12-16T13:32:33.013Z,92.7
2016-12-16T13:33:35.953Z,92.7
2016-12-16T13:34:39.397Z,92.7
2016-12-16T13:35:42.335Z,92.7
2016-12-16T13:36:45.451Z,92.7
2016-12-16T13:37:48.890Z,92.7
2016-12-16T13:38:51.831Z,92.7
2016-12-16T13:39:55.268Z,92.7
2016-12-16T13:40:58.204Z,92.7
2016-12-16T13:42:01.649Z,92.7
2016-12-16T13:43:04.590Z,92.7
2016-12-16T13:45:10.947Z,92.7
2016-12-16T13:46:14.405Z,92.7
2016-12-16T13:47:17.348Z,92.8
2016-12-16T13:49:23.701Z,92.8
2016-12-16T13:50:27.143Z,92.8
2016-12-16T13:51:30.080Z,92.8
2016-12-16T13:52:33.422Z,92.8
2016-12-16T13:53:36.396Z,92.8
2016-12-16T13:54:39.846Z,92.8
2016-12-16T13:55:42.789Z,92.8
2016-12-16T13:56:46.227Z,92.8
2016-12-16T13:57:49.170Z,92.8
2016-12-16T13:58:52.108Z,92.8
2016-12-16T13:59:55.553Z,92.8
2016-12-16T14:00:58.488Z,92.8
2016-12-16T14:02:01.933Z,92.8
2016-12-16T14:03:04.876Z,92.8
2016-12-16T14:04:08.322Z,92.8
2016-12-16T14:05:11.259Z,92.8
2016-12-16T14:06:14.699Z,92.8
2016-12-16T14:07:17.633Z,92.8
2016-12-16T14:08:21.074Z,92.8
2016-12-16T14:09:24.014Z,92.8
2016-12-16T14:10:27.460Z,92.8
2016-12-16T14:11:30.700Z,92.8
2016-12-16T14:12:33.637Z,92.9
2016-12-16T14:13:37.076Z,92.9
2016-12-16T14:14:40.011Z,92.9
2016-12-16T14:15:43.452Z,92.9
2016-12-16T14:17:49.800Z,92.9
2016-12-16T14:18:52.735Z,92.9
2016-12-16T14:19:56.175Z,92.9
2016-12-16T14:20:59.118Z,92.9
2016-12-16T14:22:02.555Z,92.9
2016-12-16T14:23:05.494Z,92.9
2016-12-16T14:24:08.440Z,92.9
2016-12-16T14:25:11.884Z,92.9
2016-12-16T14:26:14.816Z,92.9
2016-12-16T14:27:18.265Z,92.9
2016-12-16T14:28:21.204Z,92.9
2016-12-16T14:29:24.641Z,92.9
2016-12-16T14:30:27.586Z,92.9
2016-12-16T14:31:31.028Z,92.9